Terminal Aerodrome Forecast
Issued by NWS

Home | Current Version | Previous Version | Text Only | Print | Product List | Glossary On
Versions: 1 2 3 4 5 6 7 8 9 10 11 12 13 14
000
FTUS44 KJAN 222341
TAFGTR
TAF
KGTR 222341Z 2300/2324 05003KT P6SM FEW090 SCT250
     FM230700 00000KT 2SM BR FEW050 SCT250
     FM231000 00000KT 1/2SM FG BKN003 BKN250
     FM231200 00000KT 1/4SM FG BKN001 BKN250
     FM231400 15004KT 2SM BR BKN003 BKN250
     FM231500 15006KT P6SM BKN008 BKN250
     FM231700 16008KT P6SM BKN050 BKN250=

USA.gov is the U.S. government's official web portal to all federal, state and local government web resources and services.